Time;durP1;ratioP1;P1;durP2;ratioP2;P2;SDS_P1;SDS_P2;PMS_P1;PMS_P2;Temp;Humidity;BMP_temperature;BMP_pressure;BME280_temperature;BME280_humidity;BME280_pressure;Samples;Min_cycle;Max_cycle;Signal;HPM_P1;HPM_P2
2023/05/16 00:01:58;;;;;;;;;;;;;;;13.76;100.00;99311.06;5039073;28;19927;-40
2023/05/16 00:04:25;;;;;;;;;;;;;;;13.99;100.00;99325.66;5041043;28;19991;-40
2023/05/16 00:06:50;;;;;;;;;;;;;;;14.11;100.00;99323.47;5040432;28;19928;-40
2023/05/16 00:09:16;;;;;;;;;;;;;;;14.39;100.00;99357.69;5040994;28;19919;-40
2023/05/16 00:11:41;;;;;;;;;;;;;;;14.20;100.00;99326.50;5039152;28;20031;-40
2023/05/16 00:14:07;;;;;;;;;;;;;;;14.03;100.00;99318.63;5007002;28;19932;-40
2023/05/16 00:16:32;;;;;;;;;;;;;;;14.71;100.00;99324.41;5039498;28;19924;-40
2023/05/16 00:18:59;;;;;;;;;;;;;;;14.30;100.00;99311.44;5040426;28;19923;-40
2023/05/16 00:21:24;;;;;;;;;;;;;;;14.21;100.00;99348.94;5040134;28;19923;-40
2023/05/16 00:23:51;;;;;;;;;;;;;;;13.95;100.00;99351.72;5039426;28;19921;-40
2023/05/16 00:26:16;;;;;;;;;;;;;;;14.04;100.00;99361.72;5040379;28;19970;-40
2023/05/16 00:28:41;;;;;;;;;;;;;;;13.84;100.00;99356.50;5039450;28;20015;-40
2023/05/16 00:31:07;;;;;;;;;;;;;;;13.76;100.00;99378.34;5039153;28;20019;-40
2023/05/16 00:33:33;;;;;;;;;;;;;;;13.87;100.00;99408.19;5021169;28;19931;-40
2023/05/16 00:35:58;;;;;;;;;;;;;;;13.62;100.00;99405.69;5039988;28;19924;-40
2023/05/16 00:38:23;;;;;;;;;;;;;;;13.69;100.00;99438.19;5038561;28;19925;-40
2023/05/16 00:40:48;;;;;;;;;;;;;;;13.79;100.00;99435.16;5021619;28;19927;-40
2023/05/16 00:43:14;;;;;;;;;;;;;;;13.22;100.00;99449.34;5039592;28;19916;-40
2023/05/16 00:45:39;;;;;;;;;;;;;;;13.64;100.00;99487.53;5039190;28;19921;-40
2023/05/16 00:48:04;;;;;;;;;;;;;;;13.37;100.00;99503.16;5005841;28;20019;-40
2023/05/16 00:50:29;;;;;;;;;;;;;;;13.54;100.00;99535.34;5040175;28;20983;-40
2023/05/16 00:52:55;;;;;;;;;;;;;;;13.69;100.00;99554.66;5004832;28;19921;-40
2023/05/16 00:55:20;;;;;;;;;;;;;;;13.79;100.00;99538.72;5020755;28;19927;-40
2023/05/16 00:57:45;;;;;;;;;;;;;;;13.26;100.00;99533.69;5040105;28;19917;-40
2023/05/16 01:00:10;;;;;;;;;;;;;;;13.19;100.00;99571.00;5020045;28;19935;-40
2023/05/16 01:02:36;;;;;;;;;;;;;;;13.43;100.00;99594.38;5017766;28;20792;-40
2023/05/16 01:05:04;;;;;;;;;;;;;;;13.03;100.00;99603.44;5038075;28;19925;-40
2023/05/16 01:07:29;;;;;;;;;;;;;;;12.87;100.00;99634.94;5040320;28;19917;-40
2023/05/16 01:09:55;;;;;;;;;;;;;;;12.55;100.00;99680.69;5038764;28;19931;-40
2023/05/16 01:12:20;;;;;;;;;;;;;;;12.70;100.00;99725.06;5022288;28;20366;-40
2023/05/16 01:14:49;;;;;;;;;;;;;;;12.45;100.00;99764.53;5037960;28;19928;-40
2023/05/16 01:17:33;;;;;;;;;;;;;;;12.79;100.00;99833.34;5022281;28;19917;-40
2023/05/16 01:20:14;;;;;;;;;;;;;;;12.43;100.00;99881.69;5039871;28;19921;-40
2023/05/16 01:22:46;;;;;;;;;;;;;;;12.78;100.00;99960.91;5021577;28;19921;-40
2023/05/16 01:25:14;;;;;;;;;;;;;;;13.05;94.92;100024.00;5038407;28;19925;-40
2023/05/16 01:27:39;;;;;;;;;;;;;;;12.82;95.60;100042.66;5038232;28;19921;-40
2023/05/16 01:30:15;;;;;;;;;;;;;;;12.63;93.10;100059.50;5019580;28;19924;-40
2023/05/16 01:32:40;;;;;;;;;;;;;;;12.54;87.56;100102.75;5039557;28;20277;-40
2023/05/16 01:35:06;;;;;;;;;;;;;;;12.64;78.89;100149.06;5037530;28;19921;-41
2023/05/16 01:37:34;;;;;;;;;;;;;;;12.46;73.79;100191.66;5020917;28;19920;-40
2023/05/16 01:40:06;;;;;;;;;;;;;;;12.96;74.73;100231.06;5020120;28;20321;-40
2023/05/16 01:42:31;;;;;;;;;;;;;;;13.49;76.03;100269.56;5038991;28;19925;-40
2023/05/16 01:45:09;;;;;;;;;;;;;;;13.24;85.56;100244.22;5037243;28;19924;-40
2023/05/16 01:47:35;;;;;;;;;;;;;;;13.20;83.97;100237.41;5039846;28;19921;-40
2023/05/16 01:50:12;;;;;;;;;;;;;;;13.21;84.56;100243.47;5038954;28;20553;-40
2023/05/16 01:52:44;;;;;;;;;;;;;;;13.08;83.75;100253.22;5039208;28;19921;-40
2023/05/16 01:55:10;;;;;;;;;;;;;;;12.94;85.09;100254.38;5038222;28;19963;-40
2023/05/16 01:57:35;;;;;;;;;;;;;;;13.54;81.64;100293.59;5038790;28;19921;-40
2023/05/16 02:00:01;;;;;;;;;;;;;;;12.79;82.21;100270.19;5019973;28;19948;-40
2023/05/16 02:02:26;;;;;;;;;;;;;;;12.79;77.60;100298.63;5037265;28;20797;-40
2023/05/16 02:04:51;;;;;;;;;;;;;;;13.17;74.21;100341.81;5038508;28;20495;-40
2023/05/16 02:07:16;;;;;;;;;;;;;;;13.32;77.18;100351.03;5038460;28;19925;-40
2023/05/16 02:09:41;;;;;;;;;;;;;;;13.52;84.24;100331.59;5021037;28;19920;-40
2023/05/16 02:12:07;;;;;;;;;;;;;;;13.29;81.04;100317.44;5036413;28;19925;-40
2023/05/16 02:14:32;;;;;;;;;;;;;;;13.08;80.50;100315.28;5037125;28;19920;-40
2023/05/16 02:16:57;;;;;;;;;;;;;;;13.02;80.06;100331.78;5020059;28;19927;-40
2023/05/16 02:19:23;;;;;;;;;;;;;;;12.48;78.22;100326.84;5038361;28;20397;-40
2023/05/16 02:21:48;;;;;;;;;;;;;;;12.88;71.81;100365.66;5037705;28;20015;-40
2023/05/16 02:24:14;;;;;;;;;;;;;;;12.69;67.99;100391.03;5036841;28;19925;-40
2023/05/16 02:26:39;;;;;;;;;;;;;;;12.63;65.20;100403.22;5037869;28;19968;-40
2023/05/16 02:29:05;;;;;;;;;;;;;;;12.80;67.73;100421.84;5037539;28;19964;-40
2023/05/16 02:31:30;;;;;;;;;;;;;;;12.83;66.46;100431.28;5019454;28;19928;-39
2023/05/16 02:33:57;;;;;;;;;;;;;;;12.61;65.78;100438.56;5003319;28;20407;-39
2023/05/16 02:36:22;;;;;;;;;;;;;;;12.81;61.88;100474.41;5020072;28;19940;-39
2023/05/16 02:38:47;;;;;;;;;;;;;;;12.79;63.79;100482.19;5037966;28;20366;-39
2023/05/16 02:41:12;;;;;;;;;;;;;;;11.98;65.52;100462.81;5038213;28;19916;-40
2023/05/16 02:43:38;;;;;;;;;;;;;;;12.27;59.53;100506.28;5037212;28;20035;-40
2023/05/16 02:46:03;;;;;;;;;;;;;;;11.89;56.29;100512.84;5037426;28;19944;-40
2023/05/16 02:48:29;;;;;;;;;;;;;;;12.31;54.51;100546.69;5037999;28;19927;-40
2023/05/16 02:50:54;;;;;;;;;;;;;;;11.16;55.35;100525.69;5039135;28;19916;-40
2023/05/16 02:53:19;;;;;;;;;;;;;;;11.02;48.24;100546.44;5041706;28;20452;-40
2023/05/16 02:55:45;;;;;;;;;;;;;;;11.05;47.69;100586.81;5040953;28;20365;-39
2023/05/16 02:58:10;;;;;;;;;;;;;;;11.06;49.01;100609.13;5041828;28;20086;-40
2023/05/16 03:00:36;;;;;;;;;;;;;;;11.53;50.66;100646.56;5041305;28;19921;-40
2023/05/16 03:03:01;;;;;;;;;;;;;;;11.16;56.39;100630.56;5040564;28;20012;-40
2023/05/16 03:05:26;;;;;;;;;;;;;;;11.35;55.79;100641.56;5041923;28;19917;-40
2023/05/16 03:07:51;;;;;;;;;;;;;;;11.55;57.36;100649.97;5040420;28;19928;-40
2023/05/16 03:10:17;;;;;;;;;;;;;;;11.42;63.40;100620.00;5042133;28;20009;-40
2023/05/16 03:12:42;;;;;;;;;;;;;;;11.28;67.12;100602.91;5040992;28;19982;-40
2023/05/16 03:15:08;;;;;;;;;;;;;;;11.65;64.01;100612.88;5039495;28;20258;-40
2023/05/16 03:17:33;;;;;;;;;;;;;;;11.62;68.14;100594.84;5038645;28;19921;-40
2023/05/16 03:19:58;;;;;;;;;;;;;;;11.76;66.14;100599.00;5041359;28;19913;-40
2023/05/16 03:22:23;;;;;;;;;;;;;;;12.11;66.63;100604.66;5040474;28;19917;-40
2023/05/16 03:24:49;;;;;;;;;;;;;;;12.03;72.23;100578.06;5040991;28;19927;-40
2023/05/16 03:27:14;;;;;;;;;;;;;;;12.40;74.15;100564.63;5021640;28;19920;-40
2023/05/16 03:29:39;;;;;;;;;;;;;;;12.22;75.30;100544.25;5021955;28;19924;-40
2023/05/16 03:32:05;;;;;;;;;;;;;;;11.60;79.11;100503.69;5038412;28;19921;-40
2023/05/16 03:34:30;;;;;;;;;;;;;;;11.84;75.18;100520.63;5039232;28;19925;-40
2023/05/16 03:36:55;;;;;;;;;;;;;;;11.80;73.83;100526.69;5040163;28;19940;-39
2023/05/16 03:39:20;;;;;;;;;;;;;;;11.46;77.68;100505.59;5040438;28;19971;-39
2023/05/16 03:41:46;;;;;;;;;;;;;;;11.71;72.94;100527.66;5040295;28;19917;-39
2023/05/16 03:44:11;;;;;;;;;;;;;;;11.61;73.47;100531.22;5038729;28;20397;-40
2023/05/16 03:46:36;;;;;;;;;;;;;;;11.79;71.56;100549.91;5040130;28;19920;-40
2023/05/16 03:49:01;;;;;;;;;;;;;;;11.46;72.31;100547.72;5039671;28;20108;-40
2023/05/16 03:51:27;;;;;;;;;;;;;;;11.53;69.27;100571.72;5040817;28;19920;-40
2023/05/16 03:53:52;;;;;;;;;;;;;;;11.15;67.83;100572.94;5039498;28;20026;-40
2023/05/16 03:56:17;;;;;;;;;;;;;;;11.34;64.68;100598.59;5021560;28;19931;-40
2023/05/16 03:58:42;;;;;;;;;;;;;;;11.50;63.06;100620.78;5039092;28;19928;-40
2023/05/16 04:01:08;;;;;;;;;;;;;;;12.04;61.30;100659.84;5036806;28;19940;-40
2023/05/16 04:03:33;;;;;;;;;;;;;;;11.53;64.75;100636.22;5039939;28;19916;-40
2023/05/16 04:05:58;;;;;;;;;;;;;;;11.69;63.07;100652.41;5038179;28;19920;-40
2023/05/16 04:08:24;;;;;;;;;;;;;;;11.90;69.22;100652.22;5039075;28;20007;-39
2023/05/16 04:10:49;;;;;;;;;;;;;;;11.96;70.68;100635.81;5039168;28;19998;-39
2023/05/16 04:13:15;;;;;;;;;;;;;;;11.29;70.28;100606.38;5038782;28;20011;-40
2023/05/16 04:15:40;;;;;;;;;;;;;;;12.16;65.41;100647.63;5036489;28;19917;-39
2023/05/16 04:18:05;;;;;;;;;;;;;;;12.35;69.40;100659.44;5038166;28;20389;-40
2023/05/16 04:20:30;;;;;;;;;;;;;;;11.81;74.30;100605.81;5038391;28;20115;-40
2023/05/16 04:22:56;;;;;;;;;;;;;;;13.37;76.25;100644.16;5039359;28;19922;-39
2023/05/16 04:25:21;;;;;;;;;;;;;;;12.13;86.79;100540.06;5038320;28;19916;-40
2023/05/16 04:27:46;;;;;;;;;;;;;;;12.17;80.94;100554.63;5038468;28;19966;-40
2023/05/16 04:30:13;;;;;;;;;;;;;;;11.93;78.06;100554.09;5037516;28;19921;-40
2023/05/16 04:32:38;;;;;;;;;;;;;;;11.60;77.84;100564.78;5038620;28;19920;-40
2023/05/16 04:35:04;;;;;;;;;;;;;;;10.86;75.09;100550.03;5038818;28;19921;-40
2023/05/16 04:37:29;;;;;;;;;;;;;;;10.68;66.54;100587.09;5038221;28;19936;-40
2023/05/16 04:39:54;;;;;;;;;;;;;;;10.54;61.97;100628.41;5038320;28;20695;-39
2023/05/16 04:42:19;;;;;;;;;;;;;;;10.48;59.69;100661.91;5034134;28;19921;-39
2023/05/16 04:44:46;;;;;;;;;;;;;;;10.38;57.38;100680.88;5035797;28;19927;-39
2023/05/16 04:47:11;;;;;;;;;;;;;;;10.04;56.49;100697.25;5038866;28;19924;-40
2023/05/16 04:49:37;;;;;;;;;;;;;;;9.96;55.74;100716.97;5039985;28;19921;-39
2023/05/16 04:52:02;;;;;;;;;;;;;;;10.23;54.77;100748.69;5039787;28;19917;-39
2023/05/16 04:54:27;;;;;;;;;;;;;;;10.59;53.22;100783.81;5038592;28;19917;-39
2023/05/16 04:56:52;;;;;;;;;;;;;;;10.14;57.00;100777.88;5021249;28;19917;-39
2023/05/16 04:59:18;;;;;;;;;;;;;;;10.60;55.33;100810.41;5035971;28;19921;-40
2023/05/16 05:01:43;;;;;;;;;;;;;;;9.93;59.61;100796.78;5039034;28;19924;-39
2023/05/16 05:04:08;;;;;;;;;;;;;;;10.34;58.55;100829.38;5039289;28;19916;-40
2023/05/16 05:06:33;;;;;;;;;;;;;;;10.56;59.25;100835.34;5038762;28;19923;-39
2023/05/16 05:08:59;;;;;;;;;;;;;;;10.14;62.76;100820.78;5035989;28;19966;-39
2023/05/16 05:11:26;;;;;;;;;;;;;;;10.39;60.79;100837.09;5038494;28;19921;-39
2023/05/16 05:13:51;;;;;;;;;;;;;;;10.19;60.45;100837.06;5038746;28;20015;-39
2023/05/16 05:16:16;;;;;;;;;;;;;;;10.18;61.45;100836.22;5036495;28;19992;-39
2023/05/16 05:18:41;;;;;;;;;;;;;;;10.32;60.67;100862.00;5036493;28;20019;-39
2023/05/16 05:21:06;;;;;;;;;;;;;;;10.44;60.56;100872.25;5038478;28;20016;-40
2023/05/16 05:23:33;;;;;;;;;;;;;;;10.39;62.36;100868.00;5038597;28;20003;-39
2023/05/16 05:25:58;;;;;;;;;;;;;;;10.14;62.97;100855.09;5037482;28;19968;-40
2023/05/16 05:28:24;;;;;;;;;;;;;;;10.69;61.12;100887.69;5021142;28;19956;-39
2023/05/16 05:30:49;;;;;;;;;;;;;;;10.36;67.49;100858.56;5037266;28;19968;-39
2023/05/16 05:33:16;;;;;;;;;;;;;;;10.49;65.82;100858.53;5038616;28;19917;-39
2023/05/16 05:35:42;;;;;;;;;;;;;;;11.09;65.66;100882.44;5037955;28;19928;-39
2023/05/16 05:38:07;;;;;;;;;;;;;;;10.48;71.67;100831.06;5037904;28;19951;-40
2023/05/16 05:40:32;;;;;;;;;;;;;;;10.38;70.21;100825.94;5038416;28;19924;-39
2023/05/16 05:42:58;;;;;;;;;;;;;;;9.94;69.61;100813.06;5039669;28;19961;-39
2023/05/16 05:45:23;;;;;;;;;;;;;;;10.80;64.76;100865.31;5036613;28;20317;-39
2023/05/16 05:47:48;;;;;;;;;;;;;;;10.34;68.77;100837.09;5039132;28;20499;-39
2023/05/16 05:50:14;;;;;;;;;;;;;;;10.17;67.14;100839.66;5038321;28;20374;-41
2023/05/16 05:52:40;;;;;;;;;;;;;;;10.24;66.62;100853.38;5037890;28;19932;-39
2023/05/16 05:55:05;;;;;;;;;;;;;;;10.10;67.15;100855.09;5019849;28;20328;-39
2023/05/16 05:57:30;;;;;;;;;;;;;;;10.46;65.59;100874.84;5038307;28;19924;-39
2023/05/16 05:59:55;;;;;;;;;;;;;;;10.45;68.78;100868.00;5037443;28;19927;-40
2023/05/16 06:02:20;;;;;;;;;;;;;;;10.52;67.47;100871.44;5037002;28;19963;-39
2023/05/16 06:04:46;;;;;;;;;;;;;;;10.41;68.25;100861.97;5036554;28;19963;-40
2023/05/16 06:07:11;;;;;;;;;;;;;;;10.45;67.64;100883.44;5038141;28;19921;-39
2023/05/16 06:09:37;;;;;;;;;;;;;;;11.03;64.46;100918.53;5037673;28;19928;-39
2023/05/16 06:12:03;;;;;;;;;;;;;;;11.02;65.96;100911.69;5038044;28;19931;-39
2023/05/16 06:14:28;;;;;;;;;;;;;;;10.73;69.29;100891.97;5036556;28;19917;-39
2023/05/16 06:16:53;;;;;;;;;;;;;;;10.27;68.96;100867.13;5037545;28;19923;-39
2023/05/16 06:19:18;;;;;;;;;;;;;;;10.77;66.32;100898.84;5038224;28;19927;-39
2023/05/16 06:21:43;;;;;;;;;;;;;;;11.22;67.65;100920.19;5038361;28;19920;-39
2023/05/16 06:24:09;;;;;;;;;;;;;;;11.82;70.35;100919.03;5038550;28;19968;-39
2023/05/16 06:26:35;;;;;;;;;;;;;;;11.03;81.01;100839.47;5040075;28;19927;-40
2023/05/16 06:29:00;;;;;;;;;;;;;;;11.45;79.91;100834.13;5042879;28;19917;-39
2023/05/16 06:31:25;;;;;;;;;;;;;;;11.99;78.37;100850.06;5023692;28;19923;-40
2023/05/16 06:33:50;;;;;;;;;;;;;;;10.98;87.64;100765.59;5041981;28;19920;-39
2023/05/16 06:36:16;;;;;;;;;;;;;;;12.00;84.81;100807.91;5041601;28;19916;-40
2023/05/16 06:38:41;;;;;;;;;;;;;;;10.72;96.46;100712.47;5042326;28;19921;-39
2023/05/16 06:41:06;;;;;;;;;;;;;;;10.45;94.62;100701.41;5042494;28;19920;-39
2023/05/16 06:43:32;;;;;;;;;;;;;;;11.36;91.22;100736.13;5042172;28;19931;-40
2023/05/16 06:45:57;;;;;;;;;;;;;;;11.36;95.77;100726.69;5023577;28;19917;-40
2023/05/16 06:48:22;;;;;;;;;;;;;;;11.19;95.97;100698.41;5042539;28;19923;-40
2023/05/16 06:50:48;;;;;;;;;;;;;;;11.47;100.00;100693.03;5042300;28;19921;-39
2023/05/16 06:53:13;;;;;;;;;;;;;;;11.76;100.00;100679.03;5041098;28;19947;-40
2023/05/16 06:55:38;;;;;;;;;;;;;;;12.47;100.00;100674.78;5040645;28;21203;-40
2023/05/16 06:58:04;;;;;;;;;;;;;;;11.93;100.00;100610.03;5041567;28;20282;-40
2023/05/16 07:00:29;;;;;;;;;;;;;;;11.73;100.00;100597.31;5040142;28;19952;-40
2023/05/16 07:02:54;;;;;;;;;;;;;;;12.20;100.00;100620.88;5040588;28;19920;-39
2023/05/16 07:05:19;;;;;;;;;;;;;;;11.96;100.00;100604.84;5040838;28;19921;-40
2023/05/16 07:07:45;;;;;;;;;;;;;;;11.68;100.00;100607.69;5039850;28;20023;-40
2023/05/16 07:10:10;;;;;;;;;;;;;;;12.53;100.00;100617.84;5022585;28;19999;-40
2023/05/16 07:12:38;;;;;;;;;;;;;;;12.54;100.00;100552.41;5040786;28;19973;-40
2023/05/16 07:15:04;;;;;;;;;;;;;;;11.86;100.00;100502.50;5038252;28;19992;-40
2023/05/16 07:17:29;;;;;;;;;;;;;;;11.39;100.00;100470.44;5041155;28;19969;-40
2023/05/16 07:19:54;;;;;;;;;;;;;;;11.28;100.00;100473.97;5042024;28;19939;-40
2023/05/16 07:22:20;;;;;;;;;;;;;;;11.32;100.00;100466.22;5041967;28;19959;-40
2023/05/16 07:24:45;;;;;;;;;;;;;;;11.73;100.00;100433.00;5040760;28;19917;-40
2023/05/16 07:27:10;;;;;;;;;;;;;;;12.17;100.00;100388.50;5041843;28;20390;-40
2023/05/16 07:29:36;;;;;;;;;;;;;;;12.62;100.00;100322.25;5038251;28;20011;-39
2023/05/16 07:32:01;;;;;;;;;;;;;;;12.29;100.00;100202.31;5040609;28;20015;-40
2023/05/16 07:34:26;;;;;;;;;;;;;;;12.55;100.00;100166.47;5041300;28;19956;-39
2023/05/16 07:36:52;;;;;;;;;;;;;;;12.85;100.00;100125.31;5041214;28;20751;-39
2023/05/16 07:39:17;;;;;;;;;;;;;;;13.28;100.00;100131.22;5040537;28;20408;-39
2023/05/16 07:41:42;;;;;;;;;;;;;;;12.74;100.00;100097.13;5040733;28;20007;-40
2023/05/16 07:44:07;;;;;;;;;;;;;;;13.38;100.00;100168.91;5023328;28;20032;-40
2023/05/16 07:46:33;;;;;;;;;;;;;;;12.49;100.00;100156.25;5039592;28;19921;-40
2023/05/16 07:48:58;;;;;;;;;;;;;;;12.12;100.00;100169.91;5040807;28;19993;-40
2023/05/16 07:51:23;;;;;;;;;;;;;;;12.01;100.00;100171.84;5041518;28;19920;-40
2023/05/16 07:53:48;;;;;;;;;;;;;;;12.16;100.00;100151.78;5040654;28;20082;-40
2023/05/16 07:56:13;;;;;;;;;;;;;;;11.69;100.00;100131.97;5040974;28;19924;-40
2023/05/16 07:58:40;;;;;;;;;;;;;;;12.80;100.00;100121.16;5041121;28;19916;-40
2023/05/16 08:01:05;;;;;;;;;;;;;;;12.10;100.00;100033.97;5022789;28;19924;-40
2023/05/16 08:03:30;;;;;;;;;;;;;;;12.36;100.00;100061.81;5041599;28;19916;-40
2023/05/16 08:05:55;;;;;;;;;;;;;;;11.79;100.00;100039.78;5041049;28;19920;-40
2023/05/16 08:08:21;;;;;;;;;;;;;;;13.12;100.00;100037.63;5040663;28;19925;-40
2023/05/16 08:10:46;;;;;;;;;;;;;;;12.98;100.00;99992.25;5040635;28;20011;-40
2023/05/16 08:13:11;;;;;;;;;;;;;;;12.47;100.00;99961.66;5040060;28;20027;-39
2023/05/16 08:15:37;;;;;;;;;;;;;;;12.80;100.00;99972.06;5039318;28;20294;-40
2023/05/16 08:18:02;;;;;;;;;;;;;;;12.49;100.00;99949.56;5041230;28;19921;-41
2023/05/16 08:20:27;;;;;;;;;;;;;;;14.15;100.00;99919.03;5040453;28;19943;-39
2023/05/16 08:22:53;;;;;;;;;;;;;;;13.29;100.00;99792.28;5039338;28;19930;-39
2023/05/16 08:25:18;;;;;;;;;;;;;;;13.01;100.00;99806.91;5040000;28;19917;-39
2023/05/16 08:27:44;;;;;;;;;;;;;;;14.60;100.00;99773.28;5038283;28;19928;-39
2023/05/16 08:30:10;;;;;;;;;;;;;;;13.35;100.00;99667.91;5040205;28;19994;-39
2023/05/16 08:32:36;;;;;;;;;;;;;;;12.28;100.00;99736.56;5040320;28;19924;-40
2023/05/16 08:35:01;;;;;;;;;;;;;;;12.41;100.00;99826.66;5040067;28;19995;-39
2023/05/16 08:37:26;;;;;;;;;;;;;;;12.59;100.00;99883.00;5038898;28;19986;-40
2023/05/16 08:39:52;;;;;;;;;;;;;;;12.54;100.00;99906.38;5039806;28;20016;-39
2023/05/16 08:42:17;;;;;;;;;;;;;;;13.47;100.00;99916.81;5041011;28;20046;-39
2023/05/16 08:44:42;;;;;;;;;;;;;;;14.69;100.00;99862.88;5038756;28;19928;-39
2023/05/16 08:47:15;;;;;;;;;;;;;;;15.22;100.00;99737.28;5040119;28;19916;-39
2023/05/16 08:49:40;;;;;;;;;;;;;;;14.16;100.00;99568.47;5022621;28;19917;-39
2023/05/16 08:52:07;;;;;;;;;;;;;;;13.38;100.00;99504.81;5022839;28;19970;-39
2023/05/16 08:54:32;;;;;;;;;;;;;;;14.43;100.00;99457.69;5039633;28;20382;-39
2023/05/16 08:56:57;;;;;;;;;;;;;;;12.89;100.00;99452.22;5039563;28;19994;-39
2023/05/16 08:59:22;;;;;;;;;;;;;;;13.24;100.00;99501.00;5021531;28;19920;-39
2023/05/16 09:01:48;;;;;;;;;;;;;;;12.98;100.00;99508.78;5040728;28;19927;-39
2023/05/16 09:04:13;;;;;;;;;;;;;;;13.49;100.00;99509.63;5022129;28;19924;-39
2023/05/16 09:06:38;;;;;;;;;;;;;;;13.97;100.00;99495.78;5040315;28;20408;-39
2023/05/16 09:09:06;;;;;;;;;;;;;;;14.19;100.00;99475.06;5039444;28;20358;-39
2023/05/16 09:11:31;;;;;;;;;;;;;;;14.30;100.00;99414.22;5040235;28;19917;-39
2023/05/16 09:13:57;;;;;;;;;;;;;;;14.85;100.00;99367.88;5040015;28;20409;-39
2023/05/16 09:16:22;;;;;;;;;;;;;;;15.86;100.00;99360.66;5032123;28;20770;-39
2023/05/16 09:18:58;;;;;;;;;;;;;;;15.11;100.00;99340.78;5039232;28;20304;-39
2023/05/16 09:21:30;;;;;;;;;;;;;;;15.05;100.00;99300.41;5038778;28;19925;-41
2023/05/16 09:23:56;;;;;;;;;;;;;;;15.48;100.00;99281.97;5021446;28;20968;-40
2023/05/16 09:26:21;;;;;;;;;;;;;;;13.85;100.00;99299.50;5037755;28;19959;-40
2023/05/16 09:28:46;;;;;;;;;;;;;;;14.48;100.00;99325.34;5036808;28;19921;-40
2023/05/16 09:31:30;;;;;;;;;;;;;;;13.43;100.00;99322.72;5038030;28;19917;-40
2023/05/16 09:33:55;;;;;;;;;;;;;;;12.89;100.00;99317.78;5020439;28;19955;-40
2023/05/16 09:36:21;;;;;;;;;;;;;;;13.18;100.00;99339.13;5039846;28;19921;-40
2023/05/16 09:38:46;;;;;;;;;;;;;;;13.72;100.00;99304.31;5039930;28;19920;-40
2023/05/16 09:41:11;;;;;;;;;;;;;;;13.52;100.00;99338.72;5039801;28;19932;-40
2023/05/16 09:43:37;;;;;;;;;;;;;;;13.17;100.00;99355.56;5039642;28;20285;-40
2023/05/16 09:46:02;;;;;;;;;;;;;;;14.80;100.00;99325.72;5038712;28;19950;-40
2023/05/16 09:48:28;;;;;;;;;;;;;;;15.08;100.00;99260.50;5038334;28;20394;-40
2023/05/16 09:50:53;;;;;;;;;;;;;;;15.41;100.00;99228.69;5021175;28;20275;-40
2023/05/16 09:53:26;;;;;;;;;;;;;;;14.90;100.00;99197.38;5020198;28;20042;-41
2023/05/16 09:56:02;;;;;;;;;;;;;;;14.89;100.00;99161.94;5039641;28;20404;-40
2023/05/16 09:58:27;;;;;;;;;;;;;;;14.67;100.00;99174.25;5037768;28;19916;-40
2023/05/16 10:00:53;;;;;;;;;;;;;;;13.63;100.00;99216.69;5038582;28;19923;-40
2023/05/16 10:03:18;;;;;;;;;;;;;;;13.53;100.00;99247.28;5023813;28;19920;-40
2023/05/16 10:05:43;;;;;;;;;;;;;;;13.86;100.00;99259.75;5024327;28;19924;-40
2023/05/16 10:08:08;;;;;;;;;;;;;;;15.20;100.00;99199.41;5025159;28;19916;-40
2023/05/16 10:10:34;;;;;;;;;;;;;;;14.51;100.00;99213.78;5025020;28;19924;-41
2023/05/16 10:13:00;;;;;;;;;;;;;;;14.68;100.00;99204.44;5024769;28;19917;-41
2023/05/16 10:15:25;;;;;;;;;;;;;;;14.54;100.00;99195.53;5025004;28;20566;-41
2023/05/16 10:17:53;;;;;;;;;;;;;;;14.38;100.00;99200.53;5024917;28;19951;-40
2023/05/16 10:20:19;;;;;;;;;;;;;;;14.75;100.00;99236.94;5043439;28;19916;-40
2023/05/16 10:22:44;;;;;;;;;;;;;;;16.08;100.00;99204.59;5024687;28;20411;-41
2023/05/16 10:25:28;;;;;;;;;;;;;;;15.47;100.00;99181.69;5043191;28;19921;-41
2023/05/16 10:27:54;;;;;;;;;;;;;;;15.48;100.00;99199.75;5023119;28;19990;-40
2023/05/16 10:30:19;;;;;;;;;;;;;;;15.95;100.00;99167.19;5042884;28;19916;-40
2023/05/16 10:32:45;;;;;;;;;;;;;;;15.90;100.00;99176.97;5042696;28;20381;-40
2023/05/16 10:35:10;;;;;;;;;;;;;;;17.13;100.00;99114.00;5042378;28;19921;-41
2023/05/16 10:37:35;;;;;;;;;;;;;;;17.83;100.00;99084.75;5024916;28;19924;-41
2023/05/16 10:40:01;;;;;;;;;;;;;;;15.22;100.00;99197.59;5024870;28;19925;-41
2023/05/16 10:42:26;;;;;;;;;;;;;;;16.97;100.00;99139.22;5043162;28;20102;-40
2023/05/16 10:44:57;;;;;;;;;;;;;;;16.56;100.00;99147.50;5042050;28;19925;-40
2023/05/16 10:47:22;;;;;;;;;;;;;;;16.71;100.00;99115.44;5042628;28;20447;-40
2023/05/16 10:49:47;;;;;;;;;;;;;;;17.70;100.00;99169.78;5042767;28;19917;-41
2023/05/16 10:52:14;;;;;;;;;;;;;;;16.83;100.00;99157.34;5042635;28;20065;-40
2023/05/16 10:54:43;;;;;;;;;;;;;;;18.17;100.00;99098.34;5023740;28;19966;-39
2023/05/16 10:57:10;;;;;;;;;;;;;;;15.94;100.00;99162.06;5039948;28;19978;-40
2023/05/16 10:59:41;;;;;;;;;;;;;;;14.80;100.00;99186.59;5038896;28;22208;-40
2023/05/16 11:02:20;;;;;;;;;;;;;;;15.43;100.00;99165.41;5041271;28;19931;-40
2023/05/16 11:04:47;;;;;;;;;;;;;;;15.91;100.00;99159.63;5041311;28;20364;-41
2023/05/16 11:07:12;;;;;;;;;;;;;;;18.64;100.00;99068.44;5041893;28;19927;-41
2023/05/16 11:09:40;;;;;;;;;;;;;;;18.62;98.08;99067.72;5041492;28;19917;-40
2023/05/16 11:12:05;;;;;;;;;;;;;;;18.74;99.80;99093.00;5022212;28;19923;-41
2023/05/16 11:14:34;;;;;;;;;;;;;;;18.93;90.41;99060.53;5022183;28;19925;-41
2023/05/16 11:16:59;;;;;;;;;;;;;;;16.55;96.27;99124.19;5042460;28;19917;-41
2023/05/16 11:19:29;;;;;;;;;;;;;;;16.99;97.75;99108.75;5042723;28;20426;-40
2023/05/16 11:22:04;;;;;;;;;;;;;;;16.78;93.59;99100.34;5042367;28;19921;-41
2023/05/16 11:24:30;;;;;;;;;;;;;;;16.31;100.00;99173.97;5041657;28;19940;-41
2023/05/16 11:26:55;;;;;;;;;;;;;;;16.72;100.00;99148.34;5042254;28;19968;-40
2023/05/16 11:29:21;;;;;;;;;;;;;;;16.63;100.00;99163.63;5021709;28;20554;-40
2023/05/16 11:31:46;;;;;;;;;;;;;;;16.24;100.00;99176.06;5023967;28;19917;-41
2023/05/16 11:34:12;;;;;;;;;;;;;;;17.61;100.00;99147.72;5024036;28;19924;-40
2023/05/16 11:36:38;;;;;;;;;;;;;;;16.29;100.00;99176.66;5041672;28;19913;-40
2023/05/16 11:39:08;;;;;;;;;;;;;;;16.07;100.00;99171.72;5040648;28;19921;-41
2023/05/16 11:41:33;;;;;;;;;;;;;;;16.54;100.00;99164.97;5041911;28;19917;-41
2023/05/16 11:43:59;;;;;;;;;;;;;;;16.47;100.00;99140.22;5040363;28;20306;-41
2023/05/16 11:46:24;;;;;;;;;;;;;;;17.66;95.38;99082.31;5039548;28;19943;-41
2023/05/16 11:48:49;;;;;;;;;;;;;;;16.20;100.00;99163.31;5041726;28;19916;-40
2023/05/16 11:51:17;;;;;;;;;;;;;;;15.86;100.00;99175.44;5041459;28;19955;-40
2023/05/16 11:53:43;;;;;;;;;;;;;;;16.39;100.00;99155.38;5041312;28;19943;-41
2023/05/16 11:56:08;;;;;;;;;;;;;;;17.75;100.00;99132.09;5041370;28;19917;-41
2023/05/16 11:58:34;;;;;;;;;;;;;;;16.92;100.00;99175.03;5021155;28;19951;-40
2023/05/16 12:00:59;;;;;;;;;;;;;;;16.60;100.00;99151.59;5023279;28;19913;-41
2023/05/16 12:03:24;;;;;;;;;;;;;;;17.58;100.00;99162.66;5023522;28;19913;-40
2023/05/16 12:05:53;;;;;;;;;;;;;;;18.05;100.00;99133.00;5041142;28;19917;-41
2023/05/16 12:08:20;;;;;;;;;;;;;;;17.69;100.00;99136.81;5040552;28;19931;-41
2023/05/16 12:10:46;;;;;;;;;;;;;;;18.02;100.00;99115.78;5039853;28;19960;-40
2023/05/16 12:13:11;;;;;;;;;;;;;;;17.40;100.00;99123.72;5021968;28;20111;-40
2023/05/16 12:15:36;;;;;;;;;;;;;;;17.60;100.00;99113.94;5039417;28;19917;-41
2023/05/16 12:18:02;;;;;;;;;;;;;;;17.84;100.00;99125.53;5022393;28;19921;-40
2023/05/16 12:20:27;;;;;;;;;;;;;;;18.72;98.18;99084.44;5040329;28;20410;-41
2023/05/16 12:22:52;;;;;;;;;;;;;;;18.34;95.94;99099.94;5040284;28;20031;-41
2023/05/16 12:25:20;;;;;;;;;;;;;;;16.56;100.00;99151.84;5039964;28;19992;-41
2023/05/16 12:27:45;;;;;;;;;;;;;;;18.01;100.00;99134.09;5037675;28;19924;-41
2023/05/16 12:30:11;;;;;;;;;;;;;;;17.93;100.00;99114.56;5039113;28;20039;-41